createdAt,value
2023-02-23T00:02:28.045Z,97440.38
2023-02-23T00:04:58.088Z,97441.63
2023-02-23T00:07:28.107Z,97427.78
2023-02-23T00:09:58.182Z,97434.00
2023-02-23T00:12:30.820Z,97427.00
2023-02-23T00:15:01.361Z,97431.00
2023-02-23T00:17:31.719Z,97432.34
2023-02-23T00:20:07.480Z,97431.56
2023-02-23T00:22:37.808Z,97426.63
2023-02-23T00:25:10.258Z,97419.63
2023-02-23T00:27:46.096Z,97425.94
2023-02-23T00:30:18.386Z,97429.47
2023-02-23T00:32:52.973Z,97430.50
2023-02-23T00:35:24.997Z,97435.09
2023-02-23T00:37:55.034Z,97433.34
2023-02-23T00:40:25.316Z,97428.66
2023-02-23T00:42:58.299Z,97425.97
2023-02-23T00:45:30.666Z,97419.75
2023-02-23T00:48:00.681Z,97411.94
2023-02-23T00:50:30.984Z,97418.41
2023-02-23T00:53:01.825Z,97418.81
2023-02-23T00:55:31.874Z,97424.16
2023-02-23T00:58:04.834Z,97414.81
2023-02-23T01:00:42.294Z,97413.28
2023-02-23T01:03:12.313Z,97422.84
2023-02-23T01:05:44.020Z,97415.03
2023-02-23T01:08:15.544Z,97429.16
2023-02-23T01:10:52.464Z,97422.44
2023-02-23T01:13:26.994Z,97413.84
2023-02-23T01:15:57.138Z,97412.69
2023-02-23T01:18:28.917Z,97424.53
2023-02-23T01:20:59.023Z,97426.03
2023-02-23T01:23:29.135Z,97417.72
2023-02-23T01:25:59.149Z,97416.56
2023-02-23T01:28:31.854Z,97412.97
2023-02-23T01:31:05.932Z,97404.38
2023-02-23T01:33:35.995Z,97398.56
2023-02-23T01:36:06.076Z,97405.16
2023-02-23T01:38:36.180Z,97402.47
2023-02-23T01:41:07.498Z,97402.94
2023-02-23T01:44:01.527Z,97408.41
2023-02-23T01:46:36.366Z,97400.63
2023-02-23T01:49:06.888Z,97401.19
2023-02-23T01:51:39.652Z,97390.88
2023-02-23T01:54:14.472Z,97392.88
2023-02-23T01:56:49.369Z,97381.78
2023-02-23T01:59:22.879Z,97380.56
2023-02-23T02:01:52.979Z,97373.78
2023-02-23T02:04:25.430Z,97378.34
2023-02-23T02:06:57.039Z,97379.75
2023-02-23T02:09:28.519Z,97367.59
2023-02-23T02:11:59.128Z,97364.75
2023-02-23T02:14:33.760Z,97355.16
2023-02-23T02:17:18.167Z,97352.84
2023-02-23T02:20:26.480Z,97352.59
2023-02-23T02:23:31.832Z,97345.53
2023-02-23T02:26:11.699Z,97344.00
2023-02-23T02:29:00.088Z,97353.63
2023-02-23T02:32:08.075Z,97352.84
2023-02-23T02:35:04.450Z,97348.84
2023-02-23T02:37:56.772Z,97345.78
2023-02-23T02:40:32.582Z,97347.06
2023-02-23T02:43:10.380Z,97342.47
2023-02-23T02:45:48.881Z,97343.22
2023-02-23T02:48:25.806Z,97344.28
2023-02-23T02:50:59.336Z,97354.59
2023-02-23T02:53:38.789Z,97348.16
2023-02-23T02:56:09.992Z,97351.69
2023-02-23T02:58:43.658Z,97345.66
2023-02-23T03:01:29.967Z,97351.50
2023-02-23T03:04:14.784Z,97346.34
2023-02-23T03:07:02.016Z,97356.31
2023-02-23T03:09:52.631Z,97359.91
2023-02-23T03:12:42.756Z,97353.75
2023-02-23T03:15:36.854Z,97359.66
2023-02-23T03:18:26.418Z,97356.34
2023-02-23T03:21:15.407Z,97351.63
2023-02-23T03:24:05.399Z,97361.25
2023-02-23T03:26:54.242Z,97362.00
2023-02-23T03:29:46.228Z,97364.44
2023-02-23T03:32:36.151Z,97359.09
2023-02-23T03:35:22.805Z,97366.16
2023-02-23T03:38:09.830Z,97367.41
2023-02-23T03:40:54.786Z,97364.50
2023-02-23T03:43:49.002Z,97369.53
2023-02-23T03:46:34.009Z,97371.50
2023-02-23T03:49:19.599Z,97366.97
2023-02-23T03:52:04.863Z,97360.72
2023-02-23T03:54:50.593Z,97365.31
2023-02-23T03:57:35.793Z,97360.16
2023-02-23T04:00:25.178Z,97366.25
2023-02-23T04:03:09.679Z,97366.09
2023-02-23T04:05:55.345Z,97366.63
2023-02-23T04:08:41.743Z,97367.78
2023-02-23T04:11:42.891Z,97371.56
2023-02-23T04:14:17.344Z,97375.97
2023-02-23T04:16:47.596Z,97384.00
2023-02-23T04:19:17.735Z,97381.03
2023-02-23T04:21:47.808Z,97378.03
2023-02-23T04:24:17.843Z,97384.31
2023-02-23T04:26:47.933Z,97394.34
2023-02-23T04:29:18.294Z,97392.22
2023-02-23T04:31:52.183Z,97388.56
2023-02-23T04:34:22.285Z,97386.66
2023-02-23T04:36:52.569Z,97384.84
2023-02-23T04:39:22.644Z,97390.50
2023-02-23T04:41:52.902Z,97386.59
2023-02-23T04:44:23.237Z,97384.97
2023-02-23T04:46:55.922Z,97387.66
2023-02-23T04:49:26.753Z,97383.47
2023-02-23T04:51:56.809Z,97390.69
2023-02-23T04:54:26.862Z,97387.06
2023-02-23T04:56:56.983Z,97388.78
2023-02-23T04:59:27.177Z,97383.72
2023-02-23T05:01:59.863Z,97386.03
2023-02-23T05:04:29.928Z,97392.03
2023-02-23T05:07:00.432Z,97397.56
2023-02-23T05:09:30.608Z,97396.13
2023-02-23T05:12:00.651Z,97408.72
2023-02-23T05:14:30.776Z,97409.19
2023-02-23T05:17:03.510Z,97404.22
2023-02-23T05:19:33.575Z,97401.09
2023-02-23T05:22:03.597Z,97412.72
2023-02-23T05:24:33.662Z,97407.84
2023-02-23T05:27:03.681Z,97412.63
2023-02-23T05:29:33.791Z,97418.16
2023-02-23T05:32:06.607Z,97413.84
2023-02-23T05:34:39.272Z,97408.78
2023-02-23T05:37:09.465Z,97401.75
2023-02-23T05:39:39.555Z,97413.28
2023-02-23T05:42:09.833Z,97414.19
2023-02-23T05:44:39.875Z,97415.63
2023-02-23T05:47:13.308Z,97410.56
2023-02-23T05:49:43.585Z,97410.84
2023-02-23T05:52:13.654Z,97414.69
2023-02-23T05:54:43.731Z,97407.63
2023-02-23T05:57:13.735Z,97411.31
2023-02-23T05:59:43.972Z,97417.34
2023-02-23T06:02:16.606Z,97412.84
2023-02-23T06:04:47.112Z,97417.88
2023-02-23T06:07:17.207Z,97412.94
2023-02-23T06:09:47.269Z,97410.44
2023-02-23T06:12:17.361Z,97407.22
2023-02-23T06:14:47.523Z,97415.03
2023-02-23T06:17:21.068Z,97417.34
2023-02-23T06:19:51.223Z,97419.44
2023-02-23T06:22:21.278Z,97418.34
2023-02-23T06:24:51.462Z,97414.91
2023-02-23T06:27:21.739Z,97411.13
2023-02-23T06:29:51.806Z,97422.75
2023-02-23T06:32:24.497Z,97426.06
2023-02-23T06:34:54.755Z,97420.72
2023-02-23T06:37:24.876Z,97422.66
2023-02-23T06:39:55.056Z,97430.28
2023-02-23T06:42:25.166Z,97434.38
2023-02-23T06:44:55.270Z,97433.44
2023-02-23T06:47:27.981Z,97437.81
2023-02-23T06:50:00.003Z,97438.97
2023-02-23T06:52:30.111Z,97436.97
2023-02-23T06:55:00.609Z,97437.63
2023-02-23T06:57:30.819Z,97437.31
2023-02-23T07:00:01.825Z,97438.75
2023-02-23T07:02:35.282Z,97438.75
2023-02-23T07:05:05.313Z,97433.41
2023-02-23T07:07:35.826Z,97440.38
2023-02-23T07:10:06.389Z,97441.22
2023-02-23T07:12:36.523Z,97438.81
2023-02-23T07:15:07.277Z,97439.66
2023-02-23T07:17:40.071Z,97440.25
2023-02-23T07:20:11.151Z,97440.78
2023-02-23T07:22:41.176Z,97431.88
2023-02-23T07:25:12.425Z,97434.44
2023-02-23T07:27:42.552Z,97435.25
2023-02-23T07:30:14.002Z,97436.03
2023-02-23T07:32:46.818Z,97432.09
2023-02-23T07:35:16.891Z,97432.38
2023-02-23T07:37:46.975Z,97446.25
2023-02-23T07:40:17.723Z,97443.13
2023-02-23T07:42:47.826Z,97435.88
2023-02-23T07:45:18.201Z,97440.06
2023-02-23T07:47:50.894Z,97442.97
2023-02-23T07:50:21.054Z,97439.75
2023-02-23T07:52:51.204Z,97442.94
2023-02-23T07:55:22.527Z,97445.56
2023-02-23T07:57:52.589Z,97445.16
2023-02-23T08:00:23.244Z,97445.50
2023-02-23T08:02:56.022Z,97451.81
2023-02-23T08:05:26.640Z,97445.84
2023-02-23T08:07:57.999Z,97454.50
2023-02-23T08:10:28.544Z,97458.63
2023-02-23T08:12:58.620Z,97447.81
2023-02-23T08:15:28.740Z,97451.13
2023-02-23T08:18:01.494Z,97453.94
2023-02-23T08:20:31.681Z,97449.38
2023-02-23T08:23:02.201Z,97450.41
2023-02-23T08:25:33.121Z,97457.00
2023-02-23T08:28:04.850Z,97450.44
2023-02-23T08:30:35.475Z,97452.03
2023-02-23T08:33:08.378Z,97450.00
2023-02-23T08:35:38.478Z,97455.38
2023-02-23T08:38:08.504Z,97454.03
2023-02-23T08:40:38.543Z,97449.88
2023-02-23T08:43:08.523Z,97451.44
2023-02-23T08:45:38.811Z,97460.25
2023-02-23T08:48:11.741Z,97449.16
2023-02-23T08:50:41.874Z,97454.53
2023-02-23T08:53:11.989Z,97452.72
2023-02-23T08:55:42.115Z,97449.03
2023-02-23T08:58:12.801Z,97451.66
2023-02-23T09:00:43.315Z,97454.47
2023-02-23T09:03:16.041Z,97450.38
2023-02-23T09:05:46.406Z,97444.53
2023-02-23T09:08:17.409Z,97449.84
2023-02-23T09:10:49.981Z,97443.03
2023-02-23T09:13:20.080Z,97450.66
2023-02-23T09:15:50.825Z,97451.00
2023-02-23T09:18:28.000Z,97454.97
2023-02-23T09:20:58.178Z,97452.69
2023-02-23T09:23:31.692Z,97448.66
2023-02-23T09:26:05.845Z,97450.69
2023-02-23T09:28:36.434Z,97449.34
2023-02-23T09:31:09.372Z,97448.06
2023-02-23T09:33:42.404Z,97447.47
2023-02-23T09:36:16.376Z,97451.75
2023-02-23T09:38:46.858Z,97449.84
2023-02-23T09:41:43.353Z,97451.84
2023-02-23T09:44:21.583Z,97440.28
2023-02-23T09:46:57.462Z,97449.34
2023-02-23T09:49:33.554Z,97456.13
2023-02-23T09:52:05.754Z,97450.50
2023-02-23T09:54:37.516Z,97451.72
2023-02-23T09:57:14.425Z,97446.59
2023-02-23T09:59:45.180Z,97450.13
2023-02-23T10:02:27.169Z,97443.81
2023-02-23T10:05:02.897Z,97440.88
2023-02-23T10:07:40.725Z,97442.84
2023-02-23T10:10:21.464Z,97447.78
2023-02-23T10:12:58.061Z,97442.53
2023-02-23T10:15:31.197Z,97446.69
2023-02-23T10:18:15.215Z,97445.78
2023-02-23T10:20:54.112Z,97450.53
2023-02-23T10:23:31.368Z,97441.81
2023-02-23T10:26:03.968Z,97453.69
2023-02-23T10:28:39.179Z,97443.59
2023-02-23T10:31:24.035Z,97439.03
2023-02-23T10:33:55.820Z,97445.94
2023-02-23T10:36:36.187Z,97446.06
2023-02-23T10:39:09.262Z,97443.78
2023-02-23T10:41:40.142Z,97439.59
2023-02-23T10:44:20.575Z,97444.91
2023-02-23T10:46:55.765Z,97447.91
2023-02-23T10:49:30.305Z,97441.13
2023-02-23T10:52:03.859Z,97442.38
2023-02-23T10:54:47.768Z,97447.03
2023-02-23T10:57:27.804Z,97441.25
2023-02-23T11:00:32.958Z,97449.31
2023-02-23T11:03:04.651Z,97442.22
2023-02-23T11:05:50.627Z,97445.50
2023-02-23T11:08:32.238Z,97441.50
2023-02-23T11:11:11.728Z,97439.97
2023-02-23T11:13:44.443Z,97431.59
2023-02-23T11:16:16.010Z,97431.59
2023-02-23T11:18:54.901Z,97438.97
2023-02-23T11:21:27.660Z,97432.97
2023-02-23T11:24:01.951Z,97431.09
2023-02-23T11:26:35.758Z,97424.59
2023-02-23T11:29:11.141Z,97433.56
2023-02-23T11:31:41.775Z,97418.06
2023-02-23T11:34:25.682Z,97417.03
2023-02-23T11:37:07.399Z,97419.78
2023-02-23T11:39:40.628Z,97417.13
2023-02-23T11:42:19.834Z,97398.53
2023-02-23T11:44:56.036Z,97410.53
2023-02-23T11:47:27.143Z,97402.03
2023-02-23T11:49:57.549Z,97397.28
2023-02-23T11:52:28.779Z,97394.22
2023-02-23T11:55:03.432Z,97391.28
2023-02-23T11:57:35.966Z,97388.19
2023-02-23T12:00:16.895Z,97392.47
2023-02-23T12:02:55.466Z,97391.97
2023-02-23T12:05:27.256Z,97394.81
2023-02-23T12:08:00.636Z,97394.00
2023-02-23T12:10:37.189Z,97391.91
2023-02-23T12:13:15.436Z,97393.34
2023-02-23T12:15:51.230Z,97387.75
2023-02-23T12:18:33.488Z,97387.84
2023-02-23T12:21:11.275Z,97384.78
2023-02-23T12:23:44.291Z,97392.31
2023-02-23T12:26:21.715Z,97386.38
2023-02-23T12:28:58.927Z,97393.00
2023-02-23T12:31:31.865Z,97388.06
2023-02-23T12:34:05.932Z,97382.91
2023-02-23T12:36:41.351Z,97383.06
2023-02-23T12:39:20.891Z,97381.81
2023-02-23T12:42:00.346Z,97379.00
2023-02-23T12:44:38.512Z,97376.09
2023-02-23T12:47:15.490Z,97371.53
2023-02-23T12:49:49.065Z,97368.13
2023-02-23T12:52:22.421Z,97369.94
2023-02-23T12:54:52.486Z,97378.13
2023-02-23T12:57:33.465Z,97378.25
2023-02-23T13:00:36.477Z,97370.72
2023-02-23T13:03:41.814Z,97367.22
2023-02-23T13:06:14.664Z,97363.66
2023-02-23T13:08:59.239Z,97367.16
2023-02-23T13:12:03.374Z,97363.59
2023-02-23T13:14:43.312Z,97361.72
2023-02-23T13:17:27.378Z,97364.84
2023-02-23T13:20:01.707Z,97355.44
2023-02-23T13:22:36.791Z,97355.09
2023-02-23T13:25:18.817Z,97360.47
2023-02-23T13:27:53.388Z,97359.44
2023-02-23T13:30:26.347Z,97350.69
2023-02-23T13:32:58.331Z,97357.81
2023-02-23T13:35:30.189Z,97357.25
2023-02-23T13:38:07.599Z,97365.00
2023-02-23T13:40:41.119Z,97364.94
2023-02-23T13:43:18.813Z,97363.47
2023-02-23T13:46:02.324Z,97362.22
2023-02-23T13:48:56.057Z,97357.16
2023-02-23T13:51:36.179Z,97355.94
2023-02-23T13:54:10.115Z,97358.41
2023-02-23T13:56:46.396Z,97361.16
2023-02-23T13:59:20.584Z,97365.22
2023-02-23T14:01:56.071Z,97355.63
2023-02-23T14:04:28.633Z,97355.19
2023-02-23T14:07:08.346Z,97351.13
2023-02-23T14:09:40.665Z,97352.19
2023-02-23T14:12:19.514Z,97352.97
2023-02-23T14:14:50.033Z,97350.50
2023-02-23T14:17:50.604Z,97355.03
2023-02-23T14:20:37.380Z,97352.72
2023-02-23T14:23:31.736Z,97346.63
2023-02-23T14:26:20.628Z,97355.91
2023-02-23T14:28:52.159Z,97350.16
2023-02-23T14:31:26.230Z,97349.84
2023-02-23T14:34:03.505Z,97349.97
2023-02-23T14:36:41.538Z,97348.47
2023-02-23T14:39:17.400Z,97339.81
2023-02-23T14:41:53.007Z,97339.34
2023-02-23T14:44:29.982Z,97336.63
2023-02-23T14:47:04.878Z,97341.75
2023-02-23T14:49:40.798Z,97341.06
2023-02-23T14:52:12.840Z,97336.53
2023-02-23T14:54:44.020Z,97338.09
2023-02-23T14:57:21.931Z,97339.66
2023-02-23T14:59:57.522Z,97339.22
2023-02-23T15:02:29.400Z,97334.66
2023-02-23T15:05:02.200Z,97328.13
2023-02-23T15:07:35.378Z,97332.19
2023-02-23T15:10:11.987Z,97336.78
2023-02-23T15:12:42.418Z,97326.16
2023-02-23T15:15:20.913Z,97321.38
2023-02-23T15:17:53.271Z,97330.28
2023-02-23T15:20:28.872Z,97336.34
2023-02-23T15:23:00.659Z,97326.72
2023-02-23T15:25:38.816Z,97326.97
2023-02-23T15:28:25.457Z,97325.97
2023-02-23T15:30:56.615Z,97321.69
2023-02-23T15:33:28.958Z,97319.69
2023-02-23T15:36:09.553Z,97320.44
2023-02-23T15:38:44.668Z,97310.59
2023-02-23T15:41:23.259Z,97314.84
2023-02-23T15:43:53.450Z,97316.94
2023-02-23T15:46:26.791Z,97320.25
2023-02-23T15:48:57.956Z,97321.25
2023-02-23T15:51:35.785Z,97320.78
2023-02-23T15:54:14.194Z,97319.78
2023-02-23T15:56:46.993Z,97323.09
2023-02-23T15:59:24.235Z,97325.09
2023-02-23T16:01:57.289Z,97330.94
2023-02-23T16:04:32.475Z,97328.13
2023-02-23T16:07:20.000Z,97337.47
2023-02-23T16:09:52.889Z,97346.28
2023-02-23T16:12:26.203Z,97348.03
2023-02-23T16:14:58.740Z,97342.41
2023-02-23T16:17:31.926Z,97344.38
2023-02-23T16:20:13.884Z,97343.59
2023-02-23T16:22:48.027Z,97345.31
2023-02-23T16:25:20.816Z,97348.56
2023-02-23T16:27:55.741Z,97346.53
2023-02-23T16:30:37.682Z,97343.16
2023-02-23T16:33:10.354Z,97347.25
2023-02-23T16:35:42.142Z,97348.72
2023-02-23T16:38:23.781Z,97338.88
2023-02-23T16:40:53.938Z,97344.09
2023-02-23T16:43:24.444Z,97345.84
2023-02-23T16:45:54.783Z,97349.88
2023-02-23T16:48:24.872Z,97353.94
2023-02-23T16:50:55.208Z,97343.31
2023-02-23T16:53:27.873Z,97353.38
2023-02-23T16:56:01.003Z,97347.31
2023-02-23T16:58:32.747Z,97349.00
2023-02-23T17:01:02.873Z,97353.88
2023-02-23T17:03:36.029Z,97347.53
2023-02-23T17:06:08.860Z,97343.50
2023-02-23T17:08:52.192Z,97343.75
2023-02-23T17:11:26.154Z,97355.16
2023-02-23T17:13:56.351Z,97352.84
2023-02-23T17:16:26.540Z,97358.13
2023-02-23T17:18:59.696Z,97353.09
2023-02-23T17:21:31.844Z,97360.69
2023-02-23T17:24:04.589Z,97357.66
2023-02-23T17:26:34.644Z,97361.91
2023-02-23T17:29:04.829Z,97355.34
2023-02-23T17:31:36.260Z,97360.44
2023-02-23T17:34:06.457Z,97366.44
2023-02-23T17:36:36.853Z,97365.88
2023-02-23T17:39:10.068Z,97363.38
2023-02-23T17:41:40.133Z,97363.56
2023-02-23T17:44:10.185Z,97363.56
2023-02-23T17:46:40.597Z,97365.06
2023-02-23T17:49:10.666Z,97371.28
2023-02-23T17:51:40.803Z,97367.22
2023-02-23T17:54:14.236Z,97366.03
2023-02-23T17:56:44.835Z,97372.03
2023-02-23T17:59:15.273Z,97372.81
2023-02-23T18:01:47.341Z,97372.81
2023-02-23T18:04:18.432Z,97375.84
2023-02-23T18:06:48.528Z,97374.91
2023-02-23T18:09:21.223Z,97374.91
2023-02-23T18:11:51.344Z,97370.63
2023-02-23T18:14:21.405Z,97366.81
2023-02-23T18:16:51.547Z,97364.31
2023-02-23T18:19:21.888Z,97361.31
2023-02-23T18:21:54.862Z,97361.84
2023-02-23T18:24:31.051Z,97369.63
2023-02-23T18:27:03.473Z,97369.28
2023-02-23T18:29:34.906Z,97362.03
2023-02-23T18:32:08.087Z,97351.41
2023-02-23T18:34:38.357Z,97359.06
2023-02-23T18:37:10.334Z,97353.84
2023-02-23T18:39:43.195Z,97354.91
2023-02-23T18:42:13.263Z,97358.88
2023-02-23T18:44:43.321Z,97356.00
2023-02-23T18:47:13.368Z,97356.97
2023-02-23T18:49:43.509Z,97356.31
2023-02-23T18:52:13.671Z,97348.41
2023-02-23T18:54:46.402Z,97352.16
2023-02-23T18:57:16.477Z,97355.63
2023-02-23T18:59:47.556Z,97348.00
2023-02-23T19:02:19.019Z,97346.81
2023-02-23T19:04:49.147Z,97343.22
2023-02-23T19:07:19.999Z,97347.22
2023-02-23T19:09:52.656Z,97342.69
2023-02-23T19:12:22.741Z,97344.94
2023-02-23T19:14:53.832Z,97341.00
2023-02-23T19:17:24.565Z,97340.56
2023-02-23T19:19:56.193Z,97347.13
2023-02-23T19:22:26.602Z,97338.84
2023-02-23T19:24:59.361Z,97341.97
2023-02-23T19:27:29.452Z,97338.53
2023-02-23T19:29:59.652Z,97339.44
2023-02-23T19:32:29.913Z,97342.03
2023-02-23T19:34:59.993Z,97335.66
2023-02-23T19:37:30.039Z,97335.00
2023-02-23T19:40:04.088Z,97340.06
2023-02-23T19:42:36.957Z,97333.53
2023-02-23T19:45:07.798Z,97339.59
2023-02-23T19:47:37.834Z,97337.53
2023-02-23T19:50:08.515Z,97340.59
2023-02-23T19:52:38.896Z,97330.75
2023-02-23T19:55:12.958Z,97327.44
2023-02-23T19:57:43.210Z,97333.13
2023-02-23T20:00:14.630Z,97321.03
2023-02-23T20:02:45.536Z,97329.06
2023-02-23T20:05:17.481Z,97320.97
2023-02-23T20:07:48.369Z,97316.25
2023-02-23T20:10:25.800Z,97325.03
2023-02-23T20:12:56.047Z,97311.66
2023-02-23T20:15:28.574Z,97320.53
2023-02-23T20:17:58.587Z,97319.78
2023-02-23T20:20:29.280Z,97317.25
2023-02-23T20:22:59.472Z,97324.09
2023-02-23T20:25:32.269Z,97314.53
2023-02-23T20:28:02.431Z,97316.34
2023-02-23T20:30:32.952Z,97319.59
2023-02-23T20:33:06.465Z,97320.09
2023-02-23T20:35:36.721Z,97314.53
2023-02-23T20:38:07.074Z,97314.25
2023-02-23T20:40:40.317Z,97312.59
2023-02-23T20:43:10.479Z,97317.81
2023-02-23T20:45:41.760Z,97312.25
2023-02-23T20:48:12.456Z,97310.59
2023-02-23T20:50:43.601Z,97308.66
2023-02-23T20:53:13.870Z,97309.59
2023-02-23T20:55:46.573Z,97308.31
2023-02-23T20:58:26.299Z,97307.00
2023-02-23T21:00:57.247Z,97314.84
2023-02-23T21:03:28.195Z,97303.41
2023-02-23T21:05:58.411Z,97303.56
2023-02-23T21:08:28.924Z,97302.03
2023-02-23T21:11:08.994Z,97298.03
2023-02-23T21:13:39.614Z,97302.81
2023-02-23T21:16:10.619Z,97299.97
2023-02-23T21:18:40.691Z,97291.91
2023-02-23T21:21:14.057Z,97298.03
2023-02-23T21:23:45.172Z,97297.50
2023-02-23T21:26:21.761Z,97295.91
2023-02-23T21:28:52.093Z,97293.66
2023-02-23T21:31:22.524Z,97293.53
2023-02-23T21:33:53.102Z,97285.00
2023-02-23T21:36:23.301Z,97285.97
2023-02-23T21:38:53.393Z,97283.56
2023-02-23T21:41:27.500Z,97290.13
2023-02-23T21:43:57.733Z,97279.06
2023-02-23T21:46:27.986Z,97281.75
2023-02-23T21:48:58.296Z,97274.88
2023-02-23T21:51:28.742Z,97268.50
2023-02-23T21:54:00.303Z,97276.06
2023-02-23T21:56:34.962Z,97268.50
2023-02-23T21:59:08.340Z,97275.22
2023-02-23T22:01:40.940Z,97268.09
2023-02-23T22:04:12.098Z,97276.19
2023-02-23T22:06:43.853Z,97273.13
2023-02-23T22:09:15.753Z,97268.56
2023-02-23T22:11:50.292Z,97264.91
2023-02-23T22:14:22.343Z,97268.72
2023-02-23T22:16:52.612Z,97260.19
2023-02-23T22:19:22.797Z,97267.28
2023-02-23T22:21:52.894Z,97273.19
2023-02-23T22:24:22.945Z,97268.94
2023-02-23T22:26:56.917Z,97272.25
2023-02-23T22:29:28.760Z,97270.03
2023-02-23T22:31:58.919Z,97270.88
2023-02-23T22:34:29.115Z,97267.84
2023-02-23T22:36:59.235Z,97272.31
2023-02-23T22:39:33.393Z,97277.84
2023-02-23T22:42:09.466Z,97269.09
2023-02-23T22:44:41.903Z,97273.09
2023-02-23T22:47:12.056Z,97272.09
2023-02-23T22:49:42.181Z,97270.09
2023-02-23T22:52:12.899Z,97262.16
2023-02-23T22:54:45.661Z,97255.88
2023-02-23T22:57:18.396Z,97270.47
2023-02-23T22:59:54.849Z,97269.22
2023-02-23T23:02:25.341Z,97264.84
2023-02-23T23:04:55.463Z,97269.63
2023-02-23T23:07:26.081Z,97269.34
2023-02-23T23:09:56.530Z,97261.09
2023-02-23T23:12:29.722Z,97265.16
2023-02-23T23:15:01.411Z,97263.88
2023-02-23T23:17:31.932Z,97264.63
2023-02-23T23:20:10.772Z,97264.31
2023-02-23T23:22:41.642Z,97264.38
2023-02-23T23:25:14.987Z,97261.63
2023-02-23T23:27:48.097Z,97258.09
2023-02-23T23:30:21.199Z,97252.25
2023-02-23T23:32:51.327Z,97251.72
2023-02-23T23:35:21.977Z,97246.66
2023-02-23T23:37:52.781Z,97246.94
2023-02-23T23:40:24.623Z,97243.41
2023-02-23T23:42:57.469Z,97241.88
2023-02-23T23:45:27.961Z,97238.34
2023-02-23T23:47:58.101Z,97231.88
2023-02-23T23:50:28.162Z,97239.88
2023-02-23T23:52:58.232Z,97241.03
2023-02-23T23:55:31.665Z,97242.44
2023-02-23T23:58:06.219Z,97243.31
